createdAt,value
2022-10-08T00:01:24.025Z,10.68
2022-10-08T00:03:54.439Z,10.68
2022-10-08T00:06:31.287Z,10.68
2022-10-08T00:09:06.282Z,10.69
2022-10-08T00:11:37.443Z,10.75
2022-10-08T00:14:05.852Z,10.78
2022-10-08T00:16:37.070Z,10.87
2022-10-08T00:19:12.239Z,10.74
2022-10-08T00:21:43.972Z,10.57
2022-10-08T00:24:18.236Z,10.58
2022-10-08T00:26:45.718Z,10.70
2022-10-08T00:29:17.158Z,10.66
2022-10-08T00:31:47.345Z,10.63
2022-10-08T00:34:24.203Z,10.69
2022-10-08T00:36:54.550Z,10.65
2022-10-08T00:39:24.825Z,10.72
2022-10-08T00:41:55.936Z,10.75
2022-10-08T00:44:56.498Z,10.64
2022-10-08T00:47:32.422Z,10.64
2022-10-08T00:50:21.116Z,10.55
2022-10-08T00:52:58.575Z,10.49
2022-10-08T00:55:30.057Z,10.46
2022-10-08T00:58:09.790Z,10.44
2022-10-08T01:00:37.110Z,10.36
2022-10-08T01:03:04.564Z,10.47
2022-10-08T01:06:20.780Z,10.47
2022-10-08T01:09:19.335Z,10.50
2022-10-08T01:12:02.143Z,10.50
2022-10-08T01:14:32.205Z,10.51
2022-10-08T01:17:43.017Z,10.54
2022-10-08T01:20:31.796Z,10.51
2022-10-08T01:23:32.117Z,10.42
2022-10-08T01:26:27.140Z,10.33
2022-10-08T01:29:03.641Z,10.43
2022-10-08T01:31:55.401Z,10.51
2022-10-08T01:34:39.221Z,10.33
2022-10-08T01:37:11.703Z,10.33
2022-10-08T01:39:41.055Z,10.25
2022-10-08T01:42:10.529Z,10.25
2022-10-08T01:44:48.764Z,10.25
2022-10-08T01:47:27.976Z,10.17
2022-10-08T01:50:14.245Z,10.17
2022-10-08T01:52:50.900Z,10.16
2022-10-08T01:55:26.662Z,10.09
2022-10-08T01:57:58.054Z,10.08
2022-10-08T02:00:25.327Z,10.05
2022-10-08T02:02:55.626Z,9.99
2022-10-08T02:05:28.224Z,9.92
2022-10-08T02:07:55.810Z,9.93
2022-10-08T02:10:25.526Z,9.95
2022-10-08T02:12:53.075Z,9.96
2022-10-08T02:15:59.470Z,9.95
2022-10-08T02:18:45.357Z,9.94
2022-10-08T02:21:24.747Z,9.91
2022-10-08T02:24:05.179Z,9.89
2022-10-08T02:26:44.448Z,9.84
2022-10-08T02:29:41.619Z,9.85
2022-10-08T02:33:11.209Z,9.84
2022-10-08T02:35:51.436Z,9.83
2022-10-08T02:38:27.311Z,9.87
2022-10-08T02:41:00.123Z,9.81
2022-10-08T02:43:32.564Z,9.81
2022-10-08T02:46:15.840Z,9.86
2022-10-08T02:48:52.108Z,9.83
2022-10-08T02:51:21.046Z,9.79
2022-10-08T02:53:49.444Z,9.78
2022-10-08T02:56:33.694Z,9.86
2022-10-08T02:59:01.356Z,9.82
2022-10-08T03:02:05.352Z,9.74
2022-10-08T03:04:46.029Z,9.78
2022-10-08T03:07:15.593Z,9.79
2022-10-08T03:09:48.798Z,9.77
2022-10-08T03:12:16.084Z,9.64
2022-10-08T03:14:48.139Z,9.65
2022-10-08T03:17:24.921Z,9.77
2022-10-08T03:19:52.452Z,9.77
2022-10-08T03:22:19.984Z,9.69
2022-10-08T03:24:47.230Z,9.69
2022-10-08T03:27:14.602Z,9.70
2022-10-08T03:29:41.868Z,9.71
2022-10-08T03:32:09.649Z,9.74
2022-10-08T03:34:36.815Z,9.80
2022-10-08T03:37:04.641Z,9.71
2022-10-08T03:39:31.849Z,9.63
2022-10-08T03:41:59.106Z,9.70
2022-10-08T03:44:26.324Z,9.77
2022-10-08T03:46:53.493Z,9.68
2022-10-08T03:49:20.698Z,9.61
2022-10-08T03:51:47.911Z,9.59
2022-10-08T03:54:15.203Z,9.64
2022-10-08T03:56:42.471Z,9.58
2022-10-08T03:59:10.177Z,9.52
2022-10-08T04:01:37.590Z,9.54
2022-10-08T04:04:05.047Z,9.58
2022-10-08T04:06:32.776Z,9.54
2022-10-08T04:09:01.289Z,9.53
2022-10-08T04:11:30.134Z,9.56
2022-10-08T04:13:57.385Z,9.50
2022-10-08T04:16:24.596Z,9.52
2022-10-08T04:18:51.818Z,9.57
2022-10-08T04:21:19.886Z,9.50
2022-10-08T04:23:50.206Z,9.53
2022-10-08T04:26:18.425Z,9.52
2022-10-08T04:28:48.222Z,9.47
2022-10-08T04:31:18.957Z,9.45
2022-10-08T04:33:46.807Z,9.50
2022-10-08T04:36:18.216Z,9.44
2022-10-08T04:38:46.381Z,9.43
2022-10-08T04:41:23.858Z,9.52
2022-10-08T04:43:52.848Z,9.53
2022-10-08T04:46:22.310Z,9.46
2022-10-08T04:48:52.672Z,9.56
2022-10-08T04:51:22.807Z,9.49
2022-10-08T04:53:50.800Z,9.51
2022-10-08T04:56:21.459Z,9.53
2022-10-08T04:58:49.176Z,9.58
2022-10-08T05:01:19.639Z,9.67
2022-10-08T05:03:50.768Z,9.60
2022-10-08T05:06:22.643Z,9.62
2022-10-08T05:08:50.705Z,9.67
2022-10-08T05:11:19.504Z,9.64
2022-10-08T05:13:52.304Z,9.66
2022-10-08T05:16:20.763Z,9.63
2022-10-08T05:18:50.835Z,9.71
2022-10-08T05:21:31.051Z,9.82
2022-10-08T05:24:02.406Z,9.95
2022-10-08T05:26:57.466Z,10.02
2022-10-08T05:29:21.662Z,10.31
2022-10-08T05:31:48.863Z,10.48
2022-10-08T05:34:16.440Z,10.78
2022-10-08T05:36:43.678Z,10.92
2022-10-08T05:39:11.998Z,11.01
2022-10-08T05:41:39.286Z,11.05
2022-10-08T05:44:07.786Z,11.19
2022-10-08T05:46:37.478Z,11.25
2022-10-08T05:49:08.593Z,11.28
2022-10-08T05:51:36.496Z,11.43
2022-10-08T05:54:03.924Z,11.73
2022-10-08T05:56:31.803Z,11.87
2022-10-08T05:58:59.095Z,12.13
2022-10-08T06:01:32.208Z,12.57
2022-10-08T06:04:08.095Z,13.69
2022-10-08T06:06:38.114Z,15.15
2022-10-08T06:09:06.672Z,16.67
2022-10-08T06:11:36.991Z,18.11
2022-10-08T06:14:07.143Z,18.83
2022-10-08T06:16:35.615Z,19.74
2022-10-08T06:19:04.467Z,20.23
2022-10-08T06:21:32.792Z,20.50
2022-10-08T06:24:03.542Z,20.84
2022-10-08T06:26:36.227Z,21.23
2022-10-08T06:29:06.494Z,21.72
2022-10-08T06:31:35.898Z,20.98
2022-10-08T06:34:04.737Z,20.44
2022-10-08T06:36:34.539Z,19.25
2022-10-08T06:39:10.120Z,18.45
2022-10-08T06:41:38.205Z,17.70
2022-10-08T06:44:10.002Z,17.22
2022-10-08T06:46:37.484Z,17.10
2022-10-08T06:49:06.312Z,16.77
2022-10-08T06:51:34.335Z,16.83
2022-10-08T06:54:07.323Z,16.90
2022-10-08T06:56:37.886Z,17.14
2022-10-08T06:59:06.743Z,17.33
2022-10-08T07:01:35.423Z,17.55
2022-10-08T07:04:04.687Z,17.41
2022-10-08T07:06:32.158Z,17.39
2022-10-08T07:09:01.148Z,17.58
2022-10-08T07:11:31.351Z,17.93
2022-10-08T07:13:58.755Z,18.16
2022-10-08T07:16:27.719Z,18.49
2022-10-08T07:18:58.538Z,19.46
2022-10-08T07:21:26.880Z,20.87
2022-10-08T07:23:54.425Z,22.33
2022-10-08T07:26:27.413Z,23.87
2022-10-08T07:29:08.339Z,25.67
2022-10-08T07:31:37.755Z,27.03
2022-10-08T07:34:10.224Z,27.52
2022-10-08T07:36:39.385Z,28.52
2022-10-08T07:39:14.798Z,28.86
2022-10-08T07:41:42.368Z,29.57
2022-10-08T07:44:12.152Z,30.35
2022-10-08T07:46:45.277Z,30.09
2022-10-08T07:49:13.864Z,30.53
2022-10-08T07:51:43.992Z,31.03
2022-10-08T07:54:17.487Z,30.97
2022-10-08T07:56:45.457Z,31.94
2022-10-08T07:59:15.193Z,31.80
2022-10-08T08:01:43.734Z,32.32
2022-10-08T08:04:12.374Z,31.97
2022-10-08T08:06:47.843Z,33.10
2022-10-08T08:09:16.428Z,33.38
2022-10-08T08:11:43.800Z,33.18
2022-10-08T08:14:10.937Z,33.13
2022-10-08T08:16:38.860Z,33.91
2022-10-08T08:19:06.445Z,34.65
2022-10-08T08:21:37.145Z,34.56
2022-10-08T08:24:15.296Z,34.07
2022-10-08T08:26:43.799Z,34.14
2022-10-08T08:29:17.801Z,34.54
2022-10-08T08:31:48.350Z,34.60
2022-10-08T08:34:22.436Z,34.39
2022-10-08T08:36:53.743Z,34.34
2022-10-08T08:39:29.606Z,34.30
2022-10-08T08:42:43.796Z,33.93
2022-10-08T08:45:48.578Z,34.19
2022-10-08T08:48:24.891Z,33.47
2022-10-08T08:50:56.349Z,34.00
2022-10-08T08:53:23.743Z,34.10
2022-10-08T08:55:55.545Z,33.72
2022-10-08T08:58:36.719Z,34.00
2022-10-08T09:01:09.904Z,34.37
2022-10-08T09:03:45.030Z,33.53
2022-10-08T09:06:20.019Z,32.78
2022-10-08T09:08:51.473Z,32.81
2022-10-08T09:11:21.357Z,32.93
2022-10-08T09:14:10.884Z,34.52
2022-10-08T09:16:39.530Z,33.50
2022-10-08T09:19:07.188Z,33.69
2022-10-08T09:21:35.088Z,34.09
2022-10-08T09:24:03.200Z,35.15
2022-10-08T09:26:36.859Z,37.28
2022-10-08T09:29:06.212Z,38.59
2022-10-08T09:31:39.447Z,39.01
2022-10-08T09:34:18.134Z,39.45
2022-10-08T09:37:01.900Z,39.58
2022-10-08T09:39:35.642Z,39.14
2022-10-08T09:42:08.615Z,38.60
2022-10-08T09:44:51.164Z,38.19
2022-10-08T09:47:25.070Z,37.70
2022-10-08T09:50:21.902Z,38.01
2022-10-08T09:52:53.611Z,37.60
2022-10-08T09:55:27.944Z,37.03
2022-10-08T09:58:03.587Z,35.84
2022-10-08T10:00:39.691Z,35.08
2022-10-08T10:03:18.105Z,35.71
2022-10-08T10:05:52.705Z,35.48
2022-10-08T10:09:10.883Z,33.37
2022-10-08T10:11:49.021Z,31.09
2022-10-08T10:14:28.632Z,28.82
2022-10-08T10:17:04.978Z,26.69
2022-10-08T10:19:49.949Z,25.62
2022-10-08T10:23:00.816Z,24.57
2022-10-08T10:26:06.565Z,24.49
2022-10-08T10:28:43.417Z,23.83
2022-10-08T10:31:23.719Z,23.32
2022-10-08T10:34:01.786Z,23.21
2022-10-08T10:39:40.821Z,22.87
2022-10-08T10:42:27.757Z,23.04
2022-10-08T10:45:20.399Z,23.00
2022-10-08T10:47:51.357Z,23.18
2022-10-08T10:50:43.719Z,23.23
2022-10-08T10:53:45.366Z,24.14
2022-10-08T10:56:20.386Z,25.45
2022-10-08T10:59:05.474Z,29.53
2022-10-08T11:01:53.562Z,28.72
2022-10-08T11:04:26.574Z,25.60
2022-10-08T11:07:33.860Z,24.79
2022-10-08T11:10:15.645Z,26.12
2022-10-08T11:12:58.841Z,26.58
2022-10-08T11:16:01.879Z,27.99
2022-10-08T11:18:51.428Z,28.92
2022-10-08T11:21:51.707Z,29.32
2022-10-08T11:24:55.571Z,30.02
2022-10-08T11:27:41.030Z,29.84
2022-10-08T11:30:30.407Z,29.99
2022-10-08T11:32:59.010Z,29.44
2022-10-08T11:35:43.226Z,29.57
2022-10-08T11:38:25.670Z,29.48
2022-10-08T11:41:07.228Z,27.86
2022-10-08T11:44:00.651Z,27.76
2022-10-08T11:46:36.729Z,28.43
2022-10-08T11:49:25.384Z,28.33
2022-10-08T11:51:54.162Z,28.42
2022-10-08T11:54:34.583Z,28.16
2022-10-08T11:57:25.578Z,28.55
2022-10-08T12:00:31.397Z,29.17
2022-10-08T12:03:00.114Z,28.97
2022-10-08T12:06:20.736Z,29.24
2022-10-08T12:09:07.265Z,28.12
2022-10-08T12:11:40.162Z,28.95
2022-10-08T12:14:14.389Z,28.93
2022-10-08T12:16:57.157Z,28.06
2022-10-08T12:19:33.860Z,28.10
2022-10-08T12:22:16.665Z,28.16
2022-10-08T12:24:49.593Z,26.84
2022-10-08T12:27:17.761Z,26.77
2022-10-08T12:30:03.810Z,26.81
2022-10-08T12:32:40.179Z,26.46
2022-10-08T12:35:29.562Z,26.10
2022-10-08T12:38:17.869Z,25.71
2022-10-08T12:41:06.124Z,25.65
2022-10-08T12:43:56.435Z,25.13
2022-10-08T12:46:53.149Z,24.73
2022-10-08T12:49:41.625Z,25.01
2022-10-08T12:52:23.130Z,24.42
2022-10-08T12:54:55.422Z,24.01
2022-10-08T12:57:43.307Z,23.51
2022-10-08T13:00:26.025Z,23.62
2022-10-08T13:03:22.800Z,23.68
2022-10-08T13:05:50.135Z,23.52
2022-10-08T13:08:36.101Z,23.38
2022-10-08T13:11:14.693Z,23.06
2022-10-08T13:13:49.530Z,22.88
2022-10-08T13:16:25.973Z,22.65
2022-10-08T13:18:58.518Z,22.38
2022-10-08T13:21:31.863Z,21.95
2022-10-08T13:24:01.163Z,21.73
2022-10-08T13:26:44.466Z,21.59
2022-10-08T13:29:21.617Z,21.73
2022-10-08T13:32:13.245Z,21.57
2022-10-08T13:34:44.967Z,21.15
2022-10-08T13:37:16.538Z,21.09
2022-10-08T13:40:26.401Z,20.79
2022-10-08T13:42:58.216Z,20.67
2022-10-08T13:45:29.254Z,20.59
2022-10-08T13:47:59.125Z,20.44
2022-10-08T13:50:26.412Z,20.01
2022-10-08T13:52:57.717Z,19.94
2022-10-08T13:55:32.429Z,19.93
2022-10-08T13:58:02.766Z,19.85
2022-10-08T14:00:31.653Z,19.85
2022-10-08T14:02:59.476Z,19.45
2022-10-08T14:05:30.041Z,19.59
2022-10-08T14:08:03.057Z,19.67
2022-10-08T14:10:30.689Z,19.57
2022-10-08T14:12:58.008Z,19.47
2022-10-08T14:15:25.215Z,19.37
2022-10-08T14:17:55.869Z,19.22
2022-10-08T14:20:23.101Z,19.19
2022-10-08T14:22:51.157Z,19.11
2022-10-08T14:25:22.774Z,19.05
2022-10-08T14:27:51.247Z,18.89
2022-10-08T14:30:19.349Z,18.87
2022-10-08T14:32:46.944Z,18.91
2022-10-08T14:35:14.459Z,18.61
2022-10-08T14:37:41.623Z,18.65
2022-10-08T14:40:21.225Z,18.64
2022-10-08T14:42:48.822Z,18.59
2022-10-08T14:45:16.323Z,18.49
2022-10-08T14:47:43.589Z,18.57
2022-10-08T14:50:11.051Z,18.46
2022-10-08T14:52:43.929Z,18.39
2022-10-08T14:55:12.114Z,18.17
2022-10-08T14:57:39.367Z,18.00
2022-10-08T15:00:07.787Z,18.05
2022-10-08T15:02:35.029Z,17.95
2022-10-08T15:05:02.641Z,17.71
2022-10-08T15:07:30.811Z,17.81
2022-10-08T15:09:58.461Z,17.68
2022-10-08T15:12:25.749Z,17.62
2022-10-08T15:14:52.904Z,17.64
2022-10-08T15:17:20.218Z,17.57
2022-10-08T15:19:47.435Z,17.57
2022-10-08T15:22:14.642Z,17.60
2022-10-08T15:24:41.847Z,17.55
2022-10-08T15:27:09.114Z,17.45
2022-10-08T15:29:36.640Z,17.36
2022-10-08T15:32:04.122Z,17.27
2022-10-08T15:34:31.338Z,17.27
2022-10-08T15:36:58.508Z,17.21
2022-10-08T15:39:25.887Z,17.00
2022-10-08T15:41:55.334Z,17.00
2022-10-08T15:44:31.053Z,16.97
2022-10-08T15:47:02.106Z,16.87
2022-10-08T15:49:40.499Z,16.71
2022-10-08T15:52:13.080Z,16.63
2022-10-08T15:54:41.705Z,16.50
2022-10-08T15:57:11.913Z,16.51
2022-10-08T15:59:39.307Z,16.43
2022-10-08T16:02:07.382Z,16.32
2022-10-08T16:04:34.768Z,16.21
2022-10-08T16:07:02.048Z,16.13
2022-10-08T16:09:29.418Z,15.98
2022-10-08T16:11:56.599Z,15.88
2022-10-08T16:14:26.631Z,15.71
2022-10-08T16:16:54.682Z,15.57
2022-10-08T16:19:26.193Z,15.49
2022-10-08T16:21:56.582Z,15.50
2022-10-08T16:24:24.800Z,15.44
2022-10-08T16:26:52.815Z,15.43
2022-10-08T16:29:20.390Z,15.26
2022-10-08T16:31:48.087Z,15.13
2022-10-08T16:34:21.745Z,14.96
2022-10-08T16:36:49.821Z,14.86
2022-10-08T16:39:21.100Z,14.79
2022-10-08T16:41:49.777Z,14.88
2022-10-08T16:44:20.407Z,14.89
2022-10-08T16:46:51.811Z,14.82
2022-10-08T16:49:30.090Z,14.73
2022-10-08T16:52:02.367Z,14.58
2022-10-08T16:54:30.361Z,14.48
2022-10-08T16:56:58.918Z,14.35
2022-10-08T16:59:28.788Z,14.28
2022-10-08T17:01:58.863Z,14.16
2022-10-08T17:04:28.768Z,14.27
2022-10-08T17:06:56.297Z,14.27
2022-10-08T17:09:23.552Z,14.31
2022-10-08T17:11:51.802Z,14.31
2022-10-08T17:14:19.146Z,14.24
2022-10-08T17:16:48.391Z,14.23
2022-10-08T17:19:15.616Z,14.26
2022-10-08T17:21:43.146Z,14.19
2022-10-08T17:24:13.728Z,14.23
2022-10-08T17:26:41.994Z,14.15
2022-10-08T17:29:12.247Z,14.10
2022-10-08T17:31:39.970Z,13.95
2022-10-08T17:34:07.817Z,13.79
2022-10-08T17:36:38.874Z,13.68
2022-10-08T17:39:13.710Z,13.61
2022-10-08T17:41:43.500Z,13.58
2022-10-08T17:44:11.901Z,13.64
2022-10-08T17:46:46.235Z,13.60
2022-10-08T17:49:19.707Z,13.66
2022-10-08T17:51:48.123Z,13.57
2022-10-08T17:54:19.794Z,13.52
2022-10-08T17:56:48.479Z,13.45
2022-10-08T17:59:18.395Z,13.39
2022-10-08T18:01:46.069Z,13.26
2022-10-08T18:04:16.789Z,13.33
2022-10-08T18:06:46.398Z,13.26
2022-10-08T18:09:20.927Z,13.32
2022-10-08T18:11:53.213Z,13.38
2022-10-08T18:14:22.153Z,13.44
2022-10-08T18:16:49.891Z,13.42
2022-10-08T18:19:18.284Z,13.40
2022-10-08T18:21:46.313Z,13.42
2022-10-08T18:24:13.951Z,13.39
2022-10-08T18:26:41.336Z,13.42
2022-10-08T18:29:12.122Z,13.30
2022-10-08T18:31:42.223Z,13.15
2022-10-08T18:34:16.068Z,13.20
2022-10-08T18:36:43.809Z,13.24
2022-10-08T18:39:14.899Z,13.27
2022-10-08T18:41:48.038Z,13.29
2022-10-08T18:44:23.029Z,13.25
2022-10-08T18:46:50.995Z,13.40
2022-10-08T18:49:23.976Z,13.33
2022-10-08T18:51:51.202Z,13.35
2022-10-08T18:54:18.511Z,13.26
2022-10-08T18:56:45.719Z,13.25
2022-10-08T18:59:15.344Z,13.23
2022-10-08T19:01:46.434Z,13.28
2022-10-08T19:04:20.783Z,13.37
2022-10-08T19:06:50.709Z,13.45
2022-10-08T19:09:18.195Z,13.43
2022-10-08T19:11:52.532Z,13.46
2022-10-08T19:14:23.226Z,13.38
2022-10-08T19:16:51.013Z,13.44
2022-10-08T19:19:25.295Z,13.44
2022-10-08T19:21:54.334Z,13.46
2022-10-08T19:24:24.993Z,13.54
2022-10-08T19:26:53.064Z,13.54
2022-10-08T19:29:23.766Z,13.54
2022-10-08T19:31:51.367Z,13.61
2022-10-08T19:34:22.509Z,13.63
2022-10-08T19:36:50.794Z,13.65
2022-10-08T19:39:27.451Z,13.64
2022-10-08T19:41:55.108Z,13.64
2022-10-08T19:44:23.609Z,13.69
2022-10-08T19:46:51.034Z,13.68
2022-10-08T19:49:19.324Z,13.63
2022-10-08T19:51:46.729Z,13.58
2022-10-08T19:54:14.690Z,13.57
2022-10-08T19:56:42.450Z,13.65
2022-10-08T19:59:13.898Z,13.68
2022-10-08T20:01:42.757Z,13.74
2022-10-08T20:04:10.966Z,13.64
2022-10-08T20:06:41.564Z,13.68
2022-10-08T20:09:12.123Z,13.58
2022-10-08T20:11:41.594Z,13.49
2022-10-08T20:14:09.414Z,13.46
2022-10-08T20:16:40.685Z,13.48
2022-10-08T20:19:21.014Z,13.51
2022-10-08T20:21:50.286Z,13.57
2022-10-08T20:24:18.918Z,13.63
2022-10-08T20:26:46.412Z,13.60
2022-10-08T20:29:18.359Z,13.59
2022-10-08T20:31:49.727Z,13.56
2022-10-08T20:34:26.800Z,13.47
2022-10-08T20:36:54.858Z,13.43
2022-10-08T20:39:23.200Z,13.60
2022-10-08T20:41:52.847Z,13.62
2022-10-08T20:44:20.566Z,13.76
2022-10-08T20:46:50.720Z,13.80
2022-10-08T20:49:18.853Z,13.84
2022-10-08T20:51:46.105Z,13.85
2022-10-08T20:54:16.609Z,13.80
2022-10-08T20:56:44.292Z,13.75
2022-10-08T20:59:17.579Z,13.80
2022-10-08T21:01:46.060Z,13.78
2022-10-08T21:04:14.036Z,13.85
2022-10-08T21:06:47.996Z,13.90
2022-10-08T21:09:19.028Z,13.88
2022-10-08T21:11:47.300Z,13.82
2022-10-08T21:14:22.594Z,13.89
2022-10-08T21:16:50.176Z,13.90
2022-10-08T21:19:21.562Z,13.86
2022-10-08T21:21:49.188Z,13.88
2022-10-08T21:24:16.937Z,13.88
2022-10-08T21:26:44.213Z,13.88
2022-10-08T21:29:14.509Z,13.92
2022-10-08T21:31:43.083Z,13.98
2022-10-08T21:34:13.033Z,13.96
2022-10-08T21:36:41.953Z,13.93
2022-10-08T21:39:15.710Z,14.05
2022-10-08T21:41:43.253Z,13.95
2022-10-08T21:44:10.613Z,13.99
2022-10-08T21:46:41.535Z,13.97
2022-10-08T21:49:17.466Z,13.96
2022-10-08T21:51:45.151Z,13.98
2022-10-08T21:54:14.118Z,13.91
2022-10-08T21:56:43.121Z,13.91
2022-10-08T21:59:14.279Z,13.91
2022-10-08T22:01:48.060Z,13.78
2022-10-08T22:04:24.587Z,13.75
2022-10-08T22:06:55.580Z,13.80
2022-10-08T22:09:27.444Z,13.86
2022-10-08T22:11:56.544Z,13.88
2022-10-08T22:14:24.367Z,13.85
2022-10-08T22:16:51.757Z,13.82
2022-10-08T22:19:19.194Z,13.88
2022-10-08T22:21:47.186Z,13.88
2022-10-08T22:24:15.337Z,13.83
2022-10-08T22:26:46.795Z,13.92
2022-10-08T22:29:15.098Z,13.73
2022-10-08T22:31:42.944Z,13.51
2022-10-08T22:34:10.664Z,13.51
2022-10-08T22:36:42.022Z,13.52
2022-10-08T22:39:09.932Z,13.58
2022-10-08T22:41:37.764Z,13.56
2022-10-08T22:44:05.614Z,13.68
2022-10-08T22:46:38.388Z,13.58
2022-10-08T22:49:09.566Z,13.62
2022-10-08T22:51:38.081Z,13.49
2022-10-08T22:54:05.920Z,13.49
2022-10-08T22:56:33.725Z,13.38
2022-10-08T22:59:01.485Z,13.46
2022-10-08T23:01:30.836Z,13.53
2022-10-08T23:03:58.326Z,13.57
2022-10-08T23:06:32.070Z,13.54
2022-10-08T23:09:05.959Z,13.52
2022-10-08T23:11:34.697Z,13.44
2022-10-08T23:14:02.561Z,13.38
2022-10-08T23:16:32.393Z,13.35
2022-10-08T23:19:03.488Z,13.34
2022-10-08T23:21:31.347Z,13.38
2022-10-08T23:23:59.403Z,13.32
2022-10-08T23:26:27.592Z,13.23
2022-10-08T23:28:57.606Z,13.31
2022-10-08T23:31:30.908Z,13.29
2022-10-08T23:33:59.265Z,13.34
2022-10-08T23:36:31.811Z,13.29
2022-10-08T23:38:59.406Z,13.22
2022-10-08T23:41:27.819Z,13.29
2022-10-08T23:43:56.725Z,13.12
2022-10-08T23:46:27.086Z,13.21
2022-10-08T23:48:55.261Z,13.11
2022-10-08T23:51:24.762Z,13.09
2022-10-08T23:53:52.779Z,12.98
2022-10-08T23:56:20.903Z,13.02
2022-10-08T23:58:48.939Z,13.06
